createdAt,value
2023-05-11T00:01:38.934Z,1.10
2023-05-11T00:06:41.526Z,1.08
2023-05-11T00:11:50.225Z,1.20
2023-05-11T00:16:54.984Z,0.75
2023-05-11T00:21:59.197Z,0.80
2023-05-11T00:27:01.873Z,0.47
2023-05-11T00:32:04.541Z,0.57
2023-05-11T00:37:06.973Z,0.60
2023-05-11T00:42:11.563Z,0.80
2023-05-11T00:47:14.096Z,1.30
2023-05-11T00:52:17.085Z,1.10
2023-05-11T00:57:20.057Z,1.80
2023-05-11T01:02:22.794Z,2.73
2023-05-11T01:07:38.928Z,3.00
2023-05-11T01:12:57.304Z,4.50
2023-05-11T01:18:31.739Z,4.50
2023-05-11T01:23:54.039Z,4.30
2023-05-11T01:29:03.647Z,4.43
2023-05-11T01:34:21.850Z,3.88
2023-05-11T01:39:35.379Z,4.72
2023-05-11T01:44:42.082Z,4.77
2023-05-11T01:49:46.066Z,5.10
2023-05-11T01:54:52.784Z,5.63
2023-05-11T01:59:57.319Z,4.93
2023-05-11T02:05:03.587Z,5.28
2023-05-11T02:10:07.441Z,5.67
2023-05-11T02:15:11.347Z,5.20
2023-05-11T02:20:19.266Z,5.40
2023-05-11T02:25:24.167Z,5.40
2023-05-11T02:30:31.650Z,4.85
2023-05-11T02:35:39.718Z,5.07
2023-05-11T02:40:49.988Z,4.78
2023-05-11T02:45:58.646Z,4.50
2023-05-11T02:51:05.054Z,4.55
2023-05-11T02:56:13.593Z,4.20
2023-05-11T03:01:17.789Z,3.70
2023-05-11T03:06:20.953Z,4.30
2023-05-11T03:11:24.581Z,4.20
2023-05-11T03:16:28.593Z,3.40
2023-05-11T03:21:32.509Z,3.25
2023-05-11T03:26:36.767Z,2.93
2023-05-11T03:31:39.855Z,2.80
2023-05-11T03:36:45.542Z,2.40
2023-05-11T03:41:51.367Z,2.30
2023-05-11T03:47:08.582Z,2.08
2023-05-11T03:52:12.831Z,2.10
2023-05-11T03:57:16.198Z,2.10
2023-05-11T04:02:18.885Z,2.03
2023-05-11T04:07:21.742Z,1.80
2023-05-11T04:12:24.750Z,1.63
2023-05-11T04:17:27.350Z,2.00
2023-05-11T04:22:31.123Z,2.10
2023-05-11T04:27:36.499Z,1.60
2023-05-11T04:32:46.741Z,1.60
2023-05-11T04:37:49.671Z,1.75
2023-05-11T04:42:52.431Z,2.10
2023-05-11T04:47:55.793Z,2.25
2023-05-11T04:53:00.632Z,2.30
2023-05-11T04:58:04.028Z,2.10
2023-05-11T05:03:06.869Z,2.03
2023-05-11T05:08:09.508Z,2.47
2023-05-11T05:13:13.858Z,2.63
2023-05-11T05:18:16.807Z,2.20
2023-05-11T05:23:21.126Z,2.33
2023-05-11T05:28:24.405Z,1.80
2023-05-11T05:33:32.140Z,1.75
2023-05-11T05:38:35.415Z,1.83
2023-05-11T05:43:38.347Z,1.95
2023-05-11T05:48:44.035Z,1.50
2023-05-11T05:53:50.586Z,1.33
2023-05-11T05:58:57.668Z,1.50
2023-05-11T06:04:03.376Z,1.50
2023-05-11T06:09:08.480Z,1.63
2023-05-11T06:14:11.561Z,2.40
2023-05-11T06:19:15.700Z,2.30
2023-05-11T06:24:25.716Z,1.70
2023-05-11T06:29:28.696Z,1.30
2023-05-11T06:34:32.126Z,1.10
2023-05-11T06:39:38.419Z,1.48
2023-05-11T06:44:44.353Z,1.60
2023-05-11T06:49:47.506Z,1.50
2023-05-11T06:54:50.569Z,1.58
2023-05-11T06:59:53.506Z,1.80
2023-05-11T07:04:59.119Z,1.57
2023-05-11T07:10:08.529Z,1.80
2023-05-11T07:15:11.542Z,1.45
2023-05-11T07:20:16.704Z,1.00
2023-05-11T07:25:19.908Z,0.90
2023-05-11T07:30:26.006Z,0.85
2023-05-11T07:35:29.829Z,0.67
2023-05-11T07:40:32.452Z,0.80
2023-05-11T07:45:35.208Z,0.95
2023-05-11T07:50:38.270Z,1.00
2023-05-11T07:55:41.007Z,0.88
2023-05-11T08:00:44.426Z,0.90
2023-05-11T08:05:48.063Z,0.90
2023-05-11T08:10:52.361Z,0.95
2023-05-11T08:15:55.775Z,0.95
2023-05-11T08:21:00.951Z,1.00
2023-05-11T08:26:04.752Z,0.80
2023-05-11T08:31:07.822Z,0.70
2023-05-11T08:36:13.610Z,0.55
2023-05-11T08:41:16.756Z,0.87
2023-05-11T08:46:24.209Z,1.15
2023-05-11T08:51:28.675Z,0.90
2023-05-11T08:56:32.337Z,1.03
2023-05-11T09:01:40.738Z,1.00
2023-05-11T09:06:44.111Z,0.70
2023-05-11T09:11:47.263Z,0.80
2023-05-11T09:16:53.023Z,0.73
2023-05-11T09:22:02.257Z,1.02
2023-05-11T09:27:10.177Z,0.80
2023-05-11T09:32:12.900Z,0.63
2023-05-11T09:37:19.170Z,0.73
2023-05-11T09:42:22.637Z,0.82
2023-05-11T09:47:25.303Z,0.80
2023-05-11T09:52:27.828Z,0.98
2023-05-11T09:57:33.458Z,0.90
2023-05-11T10:02:37.308Z,1.00
2023-05-11T10:07:39.996Z,1.00
2023-05-11T10:12:42.614Z,0.95
2023-05-11T10:17:46.167Z,0.90
2023-05-11T10:22:50.845Z,0.90
2023-05-11T10:27:55.307Z,1.25
2023-05-11T10:32:59.326Z,1.40
2023-05-11T10:38:02.027Z,1.20
2023-05-11T10:43:34.205Z,1.10
2023-05-11T10:48:54.728Z,0.85
2023-05-11T10:54:10.357Z,1.20
2023-05-11T10:59:37.086Z,0.60
2023-05-11T11:04:45.352Z,1.33
2023-05-11T11:09:53.998Z,2.30
2023-05-11T11:15:03.329Z,1.00
2023-05-11T11:20:08.943Z,1.40
2023-05-11T11:25:13.039Z,1.27
2023-05-11T11:30:24.064Z,1.17
2023-05-11T11:35:42.690Z,1.08
2023-05-11T11:40:54.611Z,1.30
2023-05-11T11:46:01.407Z,1.30
2023-05-11T11:51:11.909Z,1.00
2023-05-11T11:56:14.437Z,1.10
2023-05-11T12:01:26.214Z,1.50
2023-05-11T12:06:37.416Z,1.10
2023-05-11T12:11:46.178Z,0.95
2023-05-11T12:17:06.306Z,0.98
2023-05-11T12:22:11.194Z,0.90
2023-05-11T12:27:14.589Z,1.20
2023-05-11T12:32:29.417Z,1.10
2023-05-11T12:37:32.335Z,1.20
2023-05-11T12:42:36.125Z,1.00
2023-05-11T12:47:38.772Z,0.95
2023-05-11T12:52:41.363Z,1.30
2023-05-11T12:57:46.412Z,0.93
2023-05-11T13:02:50.478Z,1.00
2023-05-11T13:08:01.156Z,1.17
2023-05-11T13:13:04.249Z,1.00
2023-05-11T13:18:06.930Z,1.30
2023-05-11T13:23:12.149Z,1.20
2023-05-11T13:28:16.068Z,1.27
2023-05-11T13:33:19.505Z,1.05
2023-05-11T13:38:22.410Z,1.47
2023-05-11T13:43:25.028Z,1.50
2023-05-11T13:48:27.622Z,1.63
2023-05-11T13:53:30.145Z,1.80
2023-05-11T13:58:35.458Z,1.80
2023-05-11T14:03:39.923Z,1.87
2023-05-11T14:08:42.496Z,1.98
2023-05-11T14:13:45.231Z,2.40
2023-05-11T14:18:48.582Z,2.80
2023-05-11T14:24:06.721Z,3.17
2023-05-11T14:29:13.666Z,4.17
2023-05-11T14:34:16.837Z,4.00
2023-05-11T14:39:19.458Z,3.70
2023-05-11T14:44:25.445Z,4.20
2023-05-11T14:49:28.078Z,3.83
2023-05-11T14:54:34.326Z,4.15
2023-05-11T14:59:47.721Z,4.18
2023-05-11T15:05:00.551Z,4.27
2023-05-11T15:10:03.402Z,4.53
2023-05-11T15:15:08.396Z,4.30
2023-05-11T15:20:11.339Z,4.00
2023-05-11T15:25:13.866Z,4.25
2023-05-11T15:30:16.835Z,4.23
2023-05-11T15:35:22.702Z,4.18
2023-05-11T15:40:25.616Z,4.30
2023-05-11T15:45:29.210Z,4.50
2023-05-11T15:50:32.042Z,4.55
2023-05-11T15:55:34.762Z,4.13
2023-05-11T16:00:39.585Z,4.15
2023-05-11T16:05:42.384Z,3.95
2023-05-11T16:10:45.140Z,3.57
2023-05-11T16:15:47.831Z,4.07
2023-05-11T16:20:50.470Z,4.10
2023-05-11T16:25:53.122Z,4.97
2023-05-11T16:30:57.870Z,4.20
2023-05-11T16:36:01.869Z,4.00
2023-05-11T16:41:04.612Z,4.50
2023-05-11T16:46:07.365Z,4.28
2023-05-11T16:51:10.111Z,3.50
2023-05-11T16:56:13.744Z,4.18
2023-05-11T17:01:16.473Z,4.40
2023-05-11T17:06:21.021Z,4.07
2023-05-11T17:11:24.420Z,4.00
2023-05-11T17:16:27.158Z,4.43
2023-05-11T17:21:30.081Z,4.35
2023-05-11T17:26:46.280Z,4.27
2023-05-11T17:31:52.088Z,4.57
2023-05-11T17:36:57.618Z,4.28
2023-05-11T17:42:00.369Z,4.50
2023-05-11T17:47:04.490Z,4.55
2023-05-11T17:52:07.244Z,4.60
2023-05-11T17:57:09.980Z,4.63
2023-05-11T18:02:13.052Z,4.15
2023-05-11T18:07:15.633Z,3.70
2023-05-11T18:12:18.503Z,3.42
2023-05-11T18:17:21.254Z,3.50
2023-05-11T18:22:24.057Z,3.13
2023-05-11T18:27:26.931Z,3.20
2023-05-11T18:32:31.995Z,3.37
2023-05-11T18:37:36.246Z,2.90
2023-05-11T18:42:41.058Z,3.33
2023-05-11T18:47:46.839Z,3.30
2023-05-11T18:52:49.488Z,3.30
2023-05-11T18:57:52.982Z,3.10
2023-05-11T19:02:56.777Z,3.28
2023-05-11T19:08:00.726Z,3.73
2023-05-11T19:13:03.695Z,3.67
2023-05-11T19:18:06.451Z,3.58
2023-05-11T19:23:09.189Z,3.57
2023-05-11T19:28:12.103Z,3.80
2023-05-11T19:33:15.486Z,4.23
2023-05-11T19:38:18.836Z,4.03
2023-05-11T19:43:23.064Z,4.43
2023-05-11T19:48:25.691Z,6.40
2023-05-11T19:53:28.709Z,5.53
2023-05-11T19:58:31.409Z,6.03
2023-05-11T20:03:34.120Z,5.75
2023-05-11T20:08:38.226Z,4.00
2023-05-11T20:13:41.417Z,4.53
2023-05-11T20:18:44.365Z,3.63
2023-05-11T20:23:46.994Z,5.60
2023-05-11T20:28:49.603Z,4.15
2023-05-11T20:38:57.746Z,5.30
2023-05-11T20:44:00.497Z,4.50
2023-05-11T20:49:03.058Z,4.93
2023-05-11T20:54:07.517Z,5.75
2023-05-11T21:00:03.608Z,6.13
2023-05-11T21:04:32.900Z,4.40
2023-05-11T21:09:35.669Z,5.85
2023-05-11T21:14:38.690Z,6.53
2023-05-11T21:19:41.263Z,6.10
2023-05-11T21:24:43.884Z,6.53
2023-05-11T21:29:46.493Z,6.38
2023-05-11T21:34:50.314Z,6.53
2023-05-11T21:39:54.444Z,6.03
2023-05-11T21:44:56.983Z,6.30
2023-05-11T21:49:59.623Z,6.40
2023-05-11T21:55:02.377Z,6.13
2023-05-11T22:00:08.685Z,5.95
2023-05-11T22:05:12.725Z,6.53
2023-05-11T22:10:15.380Z,5.97
2023-05-11T22:15:17.979Z,5.95
2023-05-11T22:20:20.730Z,6.05
2023-05-11T22:25:23.796Z,4.97
2023-05-11T22:30:29.010Z,5.90
2023-05-11T22:35:31.699Z,6.55
2023-05-11T22:40:34.271Z,6.80
2023-05-11T22:45:37.506Z,5.43
2023-05-11T22:50:46.885Z,6.85
2023-05-11T22:55:49.543Z,6.67
2023-05-11T23:00:56.072Z,6.78
2023-05-11T23:05:58.484Z,6.55
2023-05-11T23:11:01.094Z,6.10
2023-05-11T23:16:04.600Z,4.95
2023-05-11T23:21:07.083Z,6.57
2023-05-11T23:26:10.358Z,6.43
2023-05-11T23:31:12.933Z,6.15
2023-05-11T23:36:15.598Z,7.15
2023-05-11T23:41:17.969Z,7.97
2023-05-11T23:46:20.619Z,6.90
2023-05-11T23:51:24.102Z,7.57
2023-05-11T23:56:26.764Z,6.20
